Corky — WDC3366 — position and weather

sailwx.info

Track history (hours):
 
Tides and Currents Weather Stations Pressure Air Temp Water Temp Dewpoint Dewpoint Depression Visibility Wind Speed Wind Dir Waves Ship Positions

Corky

Owner: Gulf South Marine Transportation, Inc., New Orleans, LA. More information available from US FCC via Universal Licensing System and Coast Guard Vessel Documentation Center.

Last reported at 2016-Aug-04 06:32 UTC. Time now 2016-Aug-28 02:12 UTC.
Position N 29°55' W 090°13'.
Warning: this ship's position is 23 days out of date.

Length 18 m; draft 3.3 m.

Type: Tow > 200 m length. MMSI: 367006780.

Date/timePositionNaut miles runAvg speedWind from/ knotsBaromVisibWave heightAir tempDewpointWater temp
2016-Aug-04 06:32N 29°55' W 090°13'4 1.9
2016-Aug-04 04:33N 29°55' W 090°08'4 4.2
2016-Aug-04 03:33N 29°57' W 090°04'4 3.6
2016-Aug-04 02:33N 29°56' W 089°60'2 1.9
2016-Aug-04 01:33N 29°55' W 089°57'3 1.4
2016-Aug-03 23:33N 29°53' W 089°57'  
2016-Jul-29 22:18N 30°01' W 089°54'1 0.3
2016-Jul-29 19:27N 30°02' W 089°54'0 0.0
2016-Jul-29 17:26N 30°01' W 089°54'0 0.1
2016-Jul-29 16:30N 30°02' W 089°54'0 0.3
2016-Jul-29 15:14N 30°01' W 089°54'0 0.0
2016-Jul-29 13:25N 30°01' W 089°54'2 2.4
2016-Jul-29 12:33N 30°00' W 089°57'3 3.5
2016-Jul-29 11:33N 29°60' W 090°01'0 0.0
2016-Jul-29 10:33N 29°60' W 090°01'0 0.3
2016-Jul-29 09:33N 29°60' W 090°01'0 0.3
2016-Jul-29 08:33N 29°60' W 090°01'1 1.1
2016-Jul-29 07:34N 29°59' W 090°01'1 1.5
2016-Jul-29 06:33N 29°58' W 090°02'1 0.6
2016-Jul-29 05:33N 29°57' W 090°02'0 0.0
2016-Jul-29 04:33N 29°57' W 090°02'0 0.0
2016-Jul-29 03:34N 29°57' W 090°02'0 0.0
2016-Jul-29 02:33N 29°57' W 090°02'0 0.0
2016-Jul-29 01:33N 29°57' W 090°02'0 0.0
2016-Jul-29 00:33N 29°57' W 090°02'0 0.0
2016-Jul-28 23:33N 29°57' W 090°02'0 0.0
2016-Jul-28 22:33N 29°57' W 090°02'0 0.0
2016-Jul-28 21:33N 29°57' W 090°02'0 0.0
2016-Jul-28 20:33N 29°57' W 090°02'0 0.0
2016-Jul-28 19:34N 29°57' W 090°02'0 0.0
2016-Jul-28 18:33N 29°57' W 090°02'0 0.0
2016-Jul-28 17:33N 29°57' W 090°02'0 0.0
2016-Jul-28 16:33N 29°57' W 090°02'0 0.0
2016-Jul-28 15:33N 29°57' W 090°02'0 0.2
2016-Jul-28 14:33N 29°57' W 090°02'0 0.1
2016-Jul-28 13:33N 29°57' W 090°02'0 0.0
2016-Jul-28 12:33N 29°57' W 090°02'0 0.0
2016-Jul-28 11:33N 29°57' W 090°02'0 0.2
2016-Jul-28 10:33N 29°57' W 090°02'5 4.9
2016-Jul-28 09:33N 29°54' W 090°07'4 3.6
2016-Jul-28 08:25N 29°56' W 090°11'0 0.1
2016-Jul-28 07:32N 29°56' W 090°11'2 2.4
2016-Jul-28 06:33N 29°56' W 090°08'4 3.6
2016-Jul-28 05:34N 29°55' W 090°04'3 3.5
2016-Jul-28 04:33N 29°57' W 090°01'2 1.6
2016-Jul-28 03:33N 29°56' W 089°59'0 0.0
2016-Jul-28 02:33N 29°56' W 089°59'0 0.0
2016-Jul-28 01:33N 29°56' W 089°59'0 0.0
2016-Jul-28 00:33N 29°56' W 089°59'0 0.0
2016-Jul-27 23:34N 29°56' W 089°59'3 3.1
2016-Jul-27 22:34N 29°57' W 090°02'5 5.3
2016-Jul-27 21:33N 29°56' W 090°08'6 0.1
2016-Jul-25 20:05N 29°58' W 090°15'3 5.9
2016-Jul-25 19:33N 29°55' W 090°12'3 3.3
2016-Jul-25 18:34N 29°57' W 090°09'4 3.5
2016-Jul-25 17:33N 29°55' W 090°06'4 3.9
2016-Jul-25 16:33N 29°57' W 090°03'1 1.3
2016-Jul-25 15:34N 29°58' W 090°02'1 1.0
2016-Jul-25 14:33N 29°58' W 090°01'1 0.6
2016-Jul-25 13:34N 29°59' W 090°01'1 1.1
2016-Jul-25 12:33N 29°60' W 090°00'0 0.0
2016-Jul-25 09:33N 29°60' W 090°00'0 0.0
2016-Jul-25 08:33N 29°60' W 090°00'  
Track history (hours):
 
Tides and Currents Weather Stations Pressure Air Temp Water Temp Dewpoint Dewpoint Depression Visibility Wind Speed Wind Dir Waves Ship Positions

Corky

Owner: Gulf South Marine Transportation, Inc., New Orleans, LA. More information available from US FCC via Universal Licensing System and Coast Guard Vessel Documentation Center.

Last reported at 2016-Aug-04 06:32 UTC. Time now 2016-Aug-28 02:12 UTC.
Position N 29°55' W 090°13'.
Warning: this ship's position is 23 days out of date.

Length 18 m; draft 3.3 m.

Type: Tow > 200 m length. MMSI: 367006780.

Date/timePositionNaut miles runAvg speedWind from/ knotsBaromVisibWave heightAir tempDewpointWater temp
2016-Aug-04 06:32N 29°55' W 090°13'4 1.9
2016-Aug-04 04:33N 29°55' W 090°08'4 4.2
2016-Aug-04 03:33N 29°57' W 090°04'4 3.6
2016-Aug-04 02:33N 29°56' W 089°60'2 1.9
2016-Aug-04 01:33N 29°55' W 089°57'3 1.4
2016-Aug-03 23:33N 29°53' W 089°57'  
2016-Jul-29 22:18N 30°01' W 089°54'1 0.3
2016-Jul-29 19:27N 30°02' W 089°54'0 0.0
2016-Jul-29 17:26N 30°01' W 089°54'0 0.1
2016-Jul-29 16:30N 30°02' W 089°54'0 0.3
2016-Jul-29 15:14N 30°01' W 089°54'0 0.0
2016-Jul-29 13:25N 30°01' W 089°54'2 2.4
2016-Jul-29 12:33N 30°00' W 089°57'3 3.5
2016-Jul-29 11:33N 29°60' W 090°01'0 0.0
2016-Jul-29 10:33N 29°60' W 090°01'0 0.3
2016-Jul-29 09:33N 29°60' W 090°01'0 0.3
2016-Jul-29 08:33N 29°60' W 090°01'1 1.1
2016-Jul-29 07:34N 29°59' W 090°01'1 1.5
2016-Jul-29 06:33N 29°58' W 090°02'1 0.6
2016-Jul-29 05:33N 29°57' W 090°02'0 0.0
2016-Jul-29 04:33N 29°57' W 090°02'0 0.0
2016-Jul-29 03:34N 29°57' W 090°02'0 0.0
2016-Jul-29 02:33N 29°57' W 090°02'0 0.0
2016-Jul-29 01:33N 29°57' W 090°02'0 0.0
2016-Jul-29 00:33N 29°57' W 090°02'0 0.0
2016-Jul-28 23:33N 29°57' W 090°02'0 0.0
2016-Jul-28 22:33N 29°57' W 090°02'0 0.0
2016-Jul-28 21:33N 29°57' W 090°02'0 0.0
2016-Jul-28 20:33N 29°57' W 090°02'0 0.0
2016-Jul-28 19:34N 29°57' W 090°02'0 0.0
2016-Jul-28 18:33N 29°57' W 090°02'0 0.0
2016-Jul-28 17:33N 29°57' W 090°02'0 0.0
2016-Jul-28 16:33N 29°57' W 090°02'0 0.0
2016-Jul-28 15:33N 29°57' W 090°02'0 0.2
2016-Jul-28 14:33N 29°57' W 090°02'0 0.1
2016-Jul-28 13:33N 29°57' W 090°02'0 0.0
2016-Jul-28 12:33N 29°57' W 090°02'0 0.0
2016-Jul-28 11:33N 29°57' W 090°02'0 0.2
2016-Jul-28 10:33N 29°57' W 090°02'5 4.9
2016-Jul-28 09:33N 29°54' W 090°07'4 3.6
2016-Jul-28 08:25N 29°56' W 090°11'0 0.1
2016-Jul-28 07:32N 29°56' W 090°11'2 2.4
2016-Jul-28 06:33N 29°56' W 090°08'4 3.6
2016-Jul-28 05:34N 29°55' W 090°04'3 3.5
2016-Jul-28 04:33N 29°57' W 090°01'2 1.6
2016-Jul-28 03:33N 29°56' W 089°59'0 0.0
2016-Jul-28 02:33N 29°56' W 089°59'0 0.0
2016-Jul-28 01:33N 29°56' W 089°59'0 0.0
2016-Jul-28 00:33N 29°56' W 089°59'0 0.0
2016-Jul-27 23:34N 29°56' W 089°59'3 3.1
2016-Jul-27 22:34N 29°57' W 090°02'5 5.3
2016-Jul-27 21:33N 29°56' W 090°08'6 0.1
2016-Jul-25 20:05N 29°58' W 090°15'3 5.9
2016-Jul-25 19:33N 29°55' W 090°12'3 3.3
2016-Jul-25 18:34N 29°57' W 090°09'4 3.5
2016-Jul-25 17:33N 29°55' W 090°06'4 3.9
2016-Jul-25 16:33N 29°57' W 090°03'1 1.3
2016-Jul-25 15:34N 29°58' W 090°02'1 1.0
2016-Jul-25 14:33N 29°58' W 090°01'1 0.6
2016-Jul-25 13:34N 29°59' W 090°01'1 1.1
2016-Jul-25 12:33N 29°60' W 090°00'0 0.0
2016-Jul-25 09:33N 29°60' W 090°00'0 0.0
2016-Jul-25 08:33N 29°60' W 090°00'  

Dump ship's entire track history